Time;durP1;ratioP1;P1;durP2;ratioP2;P2;SDS_P1;SDS_P2;PMS_P1;PMS_P2;Temp;Humidity;BMP_temperature;BMP_pressure;BME280_temperature;BME280_humidity;BME280_pressure;Samples;Min_cycle;Max_cycle;Signal;HPM_P1;HPM_P2
2022/04/11 00:01:43;;;;;;;11.38;5.40;;;;;;;;;;5048999;28;20377;-79
2022/04/11 00:04:10;;;;;;;10.63;4.95;;;;;;;;;;5058029;28;20029;-80
2022/04/11 00:06:39;;;;;;;10.20;5.10;;;;;;;;;;5066488;28;20064;-78
2022/04/11 00:09:08;;;;;;;9.43;5.10;;;;;;;;;;5057764;28;20029;-80
2022/04/11 00:11:35;;;;;;;9.73;4.90;;;;;;;;;;5054137;28;20392;-80
2022/04/11 00:14:04;;;;;;;11.05;4.90;;;;;;;;;;5055903;28;20025;-79
2022/04/11 00:16:31;;;;;;;9.90;4.65;;;;;;;;;;5063344;28;20021;-81
2022/04/11 00:18:58;;;;;;;12.00;5.18;;;;;;;;;;5065826;28;20037;-80
2022/04/11 00:21:24;;;;;;;10.32;4.72;;;;;;;;;;5038641;28;20039;-79
2022/04/11 00:23:50;;;;;;;11.15;4.68;;;;;;;;;;5061295;28;20445;-81
2022/04/11 00:26:17;;;;;;;9.75;4.57;;;;;;;;;;5072477;28;20029;-81
2022/04/11 00:28:44;;;;;;;11.65;4.82;;;;;;;;;;5067623;28;20048;-79
2022/04/11 00:31:10;;;;;;;9.48;4.32;;;;;;;;;;5055720;28;20040;-79
2022/04/11 00:33:37;;;;;;;10.48;5.38;;;;;;;;;;5059548;28;20033;-79
2022/04/11 00:36:03;;;;;;;10.00;4.55;;;;;;;;;;5057356;28;20021;-80
2022/04/11 00:38:29;;;;;;;8.98;4.68;;;;;;;;;;5035912;28;20030;-80
2022/04/11 00:40:55;;;;;;;10.32;4.65;;;;;;;;;;5062652;28;20036;-79
2022/04/11 00:43:31;;;;;;;9.45;5.07;;;;;;;;;;5054264;28;20082;-79
2022/04/11 00:45:57;;;;;;;8.50;4.70;;;;;;;;;;5082106;22;20532;-82
2022/04/11 00:48:23;;;;;;;11.95;4.47;;;;;;;;;;5088584;28;20032;-83
2022/04/11 00:50:50;;;;;;;7.82;4.20;;;5.10;99.90;;;;;;5077488;28;20015;-85
2022/04/11 00:53:16;;;;;;;8.15;4.63;;;5.10;99.90;;;;;;5077230;28;20025;-85
2022/04/11 00:55:42;;;;;;;7.05;4.38;;;5.10;99.90;;;;;;5084206;28;20036;-83
2022/04/11 00:58:08;;;;;;;9.10;4.50;;;5.20;99.90;;;;;;5056760;28;20527;-83
2022/04/11 01:00:36;;;;;;;10.18;4.35;;;8.30;99.90;;;;;;5068876;28;20032;-81
2022/04/11 01:03:02;;;;;;;11.50;4.63;;;5.20;99.90;;;;;;5060394;28;20024;-87
2022/04/11 01:05:27;;;;;;;9.48;4.20;;;5.30;99.90;;;;;;5035028;28;20182;-82
2022/04/11 01:07:53;;;;;;;9.65;4.80;;;8.40;99.90;;;;;;5029118;28;20042;-85
2022/04/11 01:10:19;;;;;;;8.02;4.60;;;5.30;99.90;;;;;;5036123;28;20029;-81
2022/04/11 01:12:45;;;;;;;8.35;4.30;;;5.30;99.90;;;;;;5051078;28;20035;-84
2022/04/11 01:15:10;;;;;;;8.60;4.30;;;5.30;99.90;;;;;;5052058;28;20021;-84
2022/04/11 01:17:38;;;;;;;7.75;4.15;;;5.30;99.90;;;;;;5049400;28;20029;-81
2022/04/11 01:20:12;;;;;;;8.20;3.95;;;5.90;99.90;;;;;;5030271;28;20036;-82
2022/04/11 01:22:41;;;;;;;10.07;4.72;;;5.30;99.90;;;;;;5050115;28;20044;-81
2022/04/11 01:25:08;;;;;;;7.28;4.38;;;5.30;99.90;;;;;;5049237;28;20039;-81
2022/04/11 01:27:33;;;;;;;7.25;4.38;;;5.30;99.90;;;;;;5047154;28;20041;-83
2022/04/11 01:29:59;;;;;;;10.52;4.35;;;5.30;99.90;;;;;;5052280;28;20486;-84
2022/04/11 01:32:25;;;;;;;8.25;4.43;;;5.30;99.90;;;;;;5035331;28;20108;-81
2022/04/11 01:34:50;;;;;;;9.77;4.85;;;5.30;99.90;;;;;;5047835;28;20068;-84
2022/04/11 01:37:16;;;;;;;9.55;4.40;;;;;;;;;;5039820;28;20040;-85
2022/04/11 01:39:42;;;;;;;11.73;4.57;;;5.40;99.90;;;;;;5058307;28;20045;-82
2022/04/11 01:42:08;;;;;;;8.95;4.68;;;5.40;99.90;;;;;;5033116;28;20035;-82
2022/04/11 01:44:33;;;;;;;9.52;4.10;;;5.30;99.90;;;;;;5049931;28;20063;-81
2022/04/11 01:46:59;;;;;;;7.82;4.30;;;6.50;99.90;;;;;;5054068;28;20029;-85
2022/04/11 01:49:25;;;;;;;7.53;4.18;;;5.30;99.90;;;;;;5048940;28;20096;-84
2022/04/11 01:51:52;;;;;;;9.45;4.38;;;6.30;99.90;;;;;;5051063;28;20391;-81
2022/04/11 01:54:17;;;;;;;8.77;4.28;;;5.30;99.90;;;;;;5049024;28;20018;-82
2022/04/11 01:56:43;;;;;;;9.40;4.25;;;5.30;99.90;;;;;;5037381;28;20032;-86
2022/04/11 01:59:08;;;;;;;8.25;4.50;;;5.20;99.90;;;;;;5036964;28;20070;-82
2022/04/11 02:01:34;;;;;;;9.63;4.78;;;7.60;99.90;;;;;;5049765;28;20055;-82
2022/04/11 02:04:00;;;;;;;7.82;4.20;;;5.30;99.90;;;;;;5040572;28;20063;-83
2022/04/11 02:06:25;;;;;;;9.55;4.82;;;5.40;99.90;;;;;;5040902;28;20108;-82
2022/04/11 02:08:51;;;;;;;8.38;4.40;;;;;;;;;;5040919;28;20032;-84
2022/04/11 02:11:17;;;;;;;7.22;4.38;;;5.40;99.90;;;;;;5037291;28;20025;-85
2022/04/11 02:13:43;;;;;;;7.50;4.32;;;5.40;99.90;;;;;;5056445;28;20523;-82
2022/04/11 02:16:09;;;;;;;9.32;5.13;;;;;;;;;;5035613;28;21015;-83
2022/04/11 02:18:35;;;;;;;8.93;4.82;;;;;;;;;;5053924;28;20040;-83
2022/04/11 02:21:00;;;;;;;8.02;4.38;;;5.40;99.90;;;;;;5038736;28;20037;-83
2022/04/11 02:23:26;;;;;;;7.55;3.78;;;7.50;99.90;;;;;;5056243;28;20025;-84
2022/04/11 02:25:51;;;;;;;6.18;3.80;;;5.40;99.90;;;;;;5030911;28;20045;-83
2022/04/11 02:28:17;;;;;;;9.13;4.07;;;5.40;99.90;;;;;;5041753;28;20071;-82
2022/04/11 02:30:43;;;;;;;6.25;3.97;;;5.30;99.90;;;;;;5058546;28;20064;-84
2022/04/11 02:33:09;;;;;;;7.90;4.10;;;5.30;99.90;;;;;;5058617;28;20054;-82
2022/04/11 02:35:35;;;;;;;8.27;4.13;;;5.30;99.90;;;;;;5057715;28;20076;-84
2022/04/11 02:38:01;;;;;;;8.27;3.97;;;;;;;;;;5056179;28;20422;-85
2022/04/11 02:40:26;;;;;;;10.65;4.25;;;5.30;99.90;;;;;;5037879;28;20028;-83
2022/04/11 02:42:52;;;;;;;7.95;4.47;;;;;;;;;;5058337;28;20474;-85
2022/04/11 02:45:18;;;;;;;9.02;3.75;;;5.30;99.90;;;;;;5054406;28;20041;-85
2022/04/11 02:47:44;;;;;;;6.10;3.70;;;5.30;99.90;;;;;;5057209;28;20045;-81
2022/04/11 02:50:10;;;;;;;8.27;3.85;;;5.90;99.90;;;;;;5036230;28;20064;-79
2022/04/11 02:52:36;;;;;;;8.73;4.38;;;5.30;99.90;;;;;;5052326;28;20121;-78
2022/04/11 02:55:01;;;;;;;9.13;3.83;;;5.30;99.90;;;;;;5054332;28;20096;-80
2022/04/11 02:57:29;;;;;;;7.75;4.40;;;5.30;99.90;;;;;;5054256;28;20044;-80
2022/04/11 02:59:55;;;;;;;7.15;4.00;;;6.30;99.90;;;;;;5036803;28;20033;-82
2022/04/11 03:02:20;;;;;;;7.90;3.92;;;5.30;99.90;;;;;;5049985;28;20491;-82
2022/04/11 03:04:46;;;;;;;8.35;3.95;;;5.40;99.90;;;;;;5051687;28;20040;-80
2022/04/11 03:07:12;;;;;;;7.50;3.97;;;5.20;99.90;;;;;;5050277;28;20048;-83
2022/04/11 03:09:38;;;;;;;14.68;4.57;;;5.20;99.90;;;;;;5056396;28;20437;-82
2022/04/11 03:12:04;;;;;;;7.20;3.83;;;5.20;99.90;;;;;;5019159;28;20037;-80
2022/04/11 03:14:30;;;;;;;6.80;4.10;;;5.10;99.90;;;;;;5042581;28;20067;-83
2022/04/11 03:16:56;;;;;;;11.75;4.07;;;5.10;99.90;;;;;;5053679;28;20032;-84
2022/04/11 03:19:22;;;;;;;8.43;4.20;;;5.10;99.90;;;;;;5031758;28;20033;-83
2022/04/11 03:21:47;;;;;;;8.10;4.25;;;6.10;99.90;;;;;;5053297;28;20025;-84
2022/04/11 03:24:13;;;;;;;7.88;3.88;;;5.00;99.90;;;;;;5037835;28;20042;-81
2022/04/11 03:26:39;;;;;;;9.60;3.88;;;4.90;99.90;;;;;;5054256;28;20033;-84
2022/04/11 03:29:04;;;;;;;8.18;4.78;;;5.00;99.90;;;;;;5039764;28;20022;-84
2022/04/11 03:31:30;;;;;;;8.60;3.65;;;5.60;99.90;;;;;;5056101;28;20474;-80
2022/04/11 03:33:56;;;;;;;9.40;4.03;;;5.00;99.90;;;;;;5058765;28;20250;-80
2022/04/11 03:36:22;;;;;;;6.65;3.83;;;5.10;99.90;;;;;;5046553;28;20024;-82
2022/04/11 03:38:48;;;;;;;8.48;4.13;;;5.20;99.90;;;;;;5037663;28;20040;-83
2022/04/11 03:41:14;;;;;;;8.63;4.20;;;;;;;;;;5035198;28;20025;-82
2022/04/11 03:43:40;;;;;;;8.82;4.30;;;5.10;99.90;;;;;;5050022;28;20037;-84
2022/04/11 03:46:06;;;;;;;11.45;4.47;;;5.50;99.90;;;;;;5048756;28;20035;-80
2022/04/11 03:48:32;;;;;;;10.95;4.60;;;5.20;99.90;;;;;;5034079;28;20384;-82
2022/04/11 03:50:57;;;;;;;11.00;4.43;;;5.40;99.90;;;;;;5045817;28;20021;-82
2022/04/11 03:53:23;;;;;;;7.03;4.30;;;5.10;99.90;;;;;;5030069;28;20035;-82
2022/04/11 03:55:48;;;;;;;11.90;5.20;;;5.00;99.90;;;;;;5057522;28;20032;-82
2022/04/11 03:58:15;;;;;;;7.70;4.43;;;4.90;99.90;;;;;;5058517;28;20051;-81
2022/04/11 04:00:40;;;;;;;8.80;4.40;;;6.30;99.90;;;;;;5038513;28;20441;-82
2022/04/11 04:03:11;;;;;;;6.93;3.97;;;4.90;99.90;;;;;;5037819;28;20112;-84
2022/04/11 04:05:45;;;;;;;7.38;4.28;;;4.80;99.90;;;;;;5051457;28;20360;-80
2022/04/11 04:08:12;;;;;;;7.07;3.83;;;5.20;99.90;;;;;;5033707;28;20124;-84
2022/04/11 04:10:40;;;;;;;8.68;4.25;;;4.80;99.90;;;;;;5051555;28;20025;-83
2022/04/11 04:13:06;;;;;;;8.07;3.72;;;4.90;99.90;;;;;;5055481;28;20018;-82
2022/04/11 04:15:32;;;;;;;7.50;4.47;;;4.90;99.90;;;;;;5050720;28;20029;-80
2022/04/11 04:17:57;;;;;;;7.05;3.97;;;4.80;99.90;;;;;;5037771;28;20123;-81
2022/04/11 04:20:25;;;;;;;7.93;3.83;;;6.10;99.90;;;;;;5033405;28;20091;-82
2022/04/11 04:22:52;;;;;;;8.07;3.58;;;4.80;99.90;;;;;;5031163;28;20313;-80
2022/04/11 04:25:17;;;;;;;6.90;4.10;;;4.70;99.90;;;;;;5047810;28;20041;-82
2022/04/11 04:27:43;;;;;;;6.75;4.00;;;4.80;99.90;;;;;;5053245;28;20037;-81
2022/04/11 04:30:09;;;;;;;7.25;3.70;;;4.80;99.90;;;;;;5039651;28;20059;-81
2022/04/11 04:32:35;;;;;;;11.80;3.60;;;4.70;99.90;;;;;;5033655;28;20115;-79
2022/04/11 04:35:01;;;;;;;6.55;4.28;;;4.70;99.90;;;;;;5034604;28;20093;-78
2022/04/11 04:37:26;;;;;;;10.20;4.60;;;4.70;99.90;;;;;;5045716;28;20033;-80
2022/04/11 04:39:52;;;;;;;9.65;3.88;;;4.70;99.90;;;;;;5054709;28;20566;-82
2022/04/11 04:42:22;;;;;;;6.68;3.33;;;4.50;99.90;;;;;;5033788;28;20045;-79
2022/04/11 04:44:47;;;;;;;7.68;3.90;;;4.50;99.90;;;;;;5048894;28;20455;-81
2022/04/11 04:47:15;;;;;;;8.07;3.92;;;4.50;99.90;;;;;;5054624;28;20140;-82
2022/04/11 04:49:41;;;;;;;7.63;3.97;;;4.50;99.90;;;;;;5042812;28;20033;-80
2022/04/11 04:52:08;;;;;;;7.07;4.00;;;4.50;99.90;;;;;;5048886;28;20021;-79
2022/04/11 04:54:34;;;;;;;9.15;3.90;;;4.40;99.90;;;;;;5053476;28;20049;-81
2022/04/11 04:56:59;;;;;;;8.05;3.80;;;4.40;99.90;;;;;;5027836;28;20080;-82
2022/04/11 04:59:25;;;;;;;7.38;3.20;;;4.50;99.90;;;;;;5047583;28;20378;-82
2022/04/11 05:01:51;;;;;;;6.55;3.40;;;4.60;99.90;;;;;;5004905;28;20751;-81
2022/04/11 05:04:16;;;;;;;9.48;3.88;;;4.70;99.90;;;;;;5042557;28;20035;-81
2022/04/11 05:06:42;;;;;;;7.35;3.72;;;4.60;99.90;;;;;;5034066;28;20463;-84
2022/04/11 05:09:07;;;;;;;5.45;3.92;;;4.50;99.90;;;;;;5033433;28;20037;-81
2022/04/11 05:11:33;;;;;;;8.40;4.03;;;4.60;99.90;;;;;;5048228;28;20057;-82
2022/04/11 05:13:59;;;;;;;6.40;3.58;;;4.50;99.90;;;;;;5050850;28;20518;-82
2022/04/11 05:16:25;;;;;;;9.85;3.88;;;;;;;;;;5049444;28;20104;-82
2022/04/11 05:18:50;;;;;;;9.05;3.97;;;4.50;99.90;;;;;;5029884;28;20479;-82
2022/04/11 05:21:16;;;;;;;7.93;4.75;;;4.50;99.90;;;;;;5030402;28;20029;-83
2022/04/11 05:23:42;;;;;;;9.32;3.60;;;4.50;99.90;;;;;;5056947;28;20033;-81
2022/04/11 05:26:08;;;;;;;10.52;3.53;;;4.50;99.90;;;;;;5048910;28;20080;-83
2022/04/11 05:28:34;;;;;;;8.43;3.80;;;4.50;99.90;;;;;;5031061;28;20096;-82
2022/04/11 05:31:00;;;;;;;8.57;3.80;;;4.50;99.90;;;;;;5033629;28;20060;-81
2022/04/11 05:33:26;;;;;;;7.68;3.70;;;4.60;99.90;;;;;;5046217;28;20148;-84
2022/04/11 05:35:53;;;;;;;10.10;5.38;;;4.60;99.90;;;;;;5041998;28;20028;-83
2022/04/11 05:38:19;;;;;;;6.25;3.55;;;5.70;99.90;;;;;;5032204;28;20123;-83
2022/04/11 05:40:46;;;;;;;7.85;3.60;;;4.60;99.90;;;;;;5030129;28;20486;-83
2022/04/11 05:43:14;;;;;;;9.43;3.45;;;4.70;99.90;;;;;;5038818;28;20120;-82
2022/04/11 05:45:41;;;;;;;10.75;4.13;;;4.70;99.90;;;;;;5051269;28;20044;-83
2022/04/11 05:48:06;;;;;;;6.95;3.50;;;4.80;99.90;;;;;;5060333;28;20104;-85
2022/04/11 05:50:32;;;;;;;10.05;4.28;;;4.70;99.90;;;;;;5053669;28;20118;-87
2022/04/11 05:53:01;;;;;;;7.20;4.03;;;4.70;99.90;;;;;;5039590;28;20151;-83
2022/04/11 05:55:27;;;;;;;11.20;4.00;;;4.70;99.90;;;;;;5057770;28;20032;-88
2022/04/11 05:57:53;;;;;;;6.45;4.00;;;4.70;99.90;;;;;;5051925;28;20039;-85
2022/04/11 06:00:22;;;;;;;9.75;3.70;;;4.80;99.90;;;;;;5054739;28;20417;-83
2022/04/11 06:02:48;;;;;;;6.43;3.53;;;4.80;99.90;;;;;;5042057;28;20021;-85
2022/04/11 06:05:14;;;;;;;6.65;3.55;;;;;;;;;;5025665;28;20029;-83
2022/04/11 06:07:40;;;;;;;6.63;3.15;;;4.80;99.90;;;;;;5029886;28;20037;-83
2022/04/11 06:10:08;;;;;;;8.88;3.40;;;5.00;99.90;;;;;;5040157;28;20024;-83
2022/04/11 06:12:34;;;;;;;7.32;3.50;;;5.00;99.90;;;;;;5060817;28;20029;-83
2022/04/11 06:15:00;;;;;;;8.05;4.03;;;5.10;99.90;;;;;;5040825;28;20054;-81
2022/04/11 06:17:26;;;;;;;7.88;3.50;;;5.10;99.90;;;;;;5053819;28;20121;-81
2022/04/11 06:19:52;;;;;;;5.82;3.50;;;7.40;99.90;;;;;;5030311;28;20040;-81
2022/04/11 06:22:21;;;;;;;8.30;3.42;;;5.30;99.90;;;;;;5034799;28;20156;-83
2022/04/11 06:24:48;;;;;;;9.85;3.70;;;5.30;99.90;;;;;;5028571;28;20407;-82
2022/04/11 06:27:15;;;;;;;6.75;3.15;;;5.40;99.90;;;;;;5035533;28;20029;-85
2022/04/11 06:29:43;;;;;;;7.18;3.85;;;5.40;99.90;;;;;;5054735;28;20100;-83
2022/04/11 06:32:10;;;;;;;8.25;3.75;;;5.60;99.90;;;;;;5025715;28;20025;-87
2022/04/11 06:34:36;;;;;;;10.82;4.35;;;5.70;99.90;;;;;;5052891;28;20052;-84
2022/04/11 06:37:03;;;;;;;7.88;3.80;;;5.80;99.90;;;;;;5027045;28;20040;-86
2022/04/11 06:39:28;;;;;;;8.05;3.50;;;6.00;99.90;;;;;;5051264;28;20025;-83
2022/04/11 06:41:54;;;;;;;6.88;3.55;;;6.20;99.90;;;;;;5050333;28;21102;-83
2022/04/11 06:44:20;;;;;;;8.50;4.15;;;6.30;99.90;;;;;;5033484;28;20103;-85
2022/04/11 06:46:46;;;;;;;4.80;3.00;;;;;;;;;;5067202;23;20044;-81
2022/04/11 06:49:12;;;;;;;6.18;3.70;;;;;;;;;;5096764;28;20058;-82
2022/04/11 06:51:38;;;;;;;8.02;3.35;;;6.70;99.90;;;;;;5096763;28;20020;-80
2022/04/11 06:54:04;;;;;;;8.07;3.55;;;9.60;99.90;;;;;;5096277;28;20053;-80
2022/04/11 06:56:30;;;;;;;5.97;3.10;;;7.00;99.90;;;;;;5079700;28;20021;-79
2022/04/11 06:58:56;;;;;;;8.00;3.00;;;;;;;;;;5055359;28;20417;-80
2022/04/11 07:01:22;;;;;;;5.90;3.10;;;;;;;;;;5041668;28;20096;-80
2022/04/11 07:03:50;;;;;;;8.40;3.28;;;;;;;;;;5051689;28;20033;-80
2022/04/11 07:06:16;;;;;;;9.05;3.15;;;;;;;;;;5069608;28;20036;-80
2022/04/11 07:08:42;;;;;;;5.07;2.90;;;;;;;;;;5072379;28;20139;-80
2022/04/11 07:11:09;;;;;;;3.90;2.60;;;7.80;99.90;;;;;;5053978;28;20024;-79
2022/04/11 07:13:34;;;;;;;6.32;2.92;;;7.30;99.90;;;;;;5073325;28;20052;-79
2022/04/11 07:16:01;;;;;;;8.45;3.30;;;8.30;99.90;;;;;;5050649;28;20039;-82
2022/04/11 07:18:27;;;;;;;7.07;3.00;;;8.20;99.90;;;;;;5070587;28;20048;-80
2022/04/11 07:20:53;;;;;;;5.35;3.20;;;;;;;;;;5070401;28;20004;-81
2022/04/11 07:23:20;;;;;;;7.65;2.92;;;;;;;;;;5084337;28;20014;-82
2022/04/11 07:25:45;;;;;;;7.90;4.35;;;8.40;99.90;;;;;;5088443;28;20036;-81
2022/04/11 07:28:14;;;;;;;4.32;2.42;;;;;;;;;;5089829;28;20049;-82
2022/04/11 07:30:40;;;;;;;5.65;2.75;;;;;;;;;;5082191;28;20032;-80
2022/04/11 07:33:06;;;;;;;5.53;2.45;;;;;;;;;;5086966;28;20063;-83
2022/04/11 07:35:33;;;;;;;4.57;2.28;;;;;;;;;;5088189;28;20028;-82
2022/04/11 07:38:00;;;;;;;4.05;2.30;;;9.10;99.90;;;;;;5090338;28;20036;-82
2022/04/11 07:40:26;;;;;;;6.82;2.78;;;;;;;;;;5086597;28;20029;-82
2022/04/11 07:42:53;;;;;;;5.25;2.38;;;;;;;;;;5074461;28;20009;-83
2022/04/11 07:45:20;;;;;;;3.22;1.98;;;9.60;97.70;;;;;;5088908;28;20021;-82
2022/04/11 07:47:50;;;;;;;3.75;2.10;;;;;;;;;;5073567;28;20066;-82
2022/04/11 07:50:16;;;;;;;5.28;2.58;;;;;;;;;;5072746;28;20024;-80
2022/04/11 07:52:43;;;;;;;5.22;2.30;;;9.60;97.00;;;;;;5067780;28;20029;-79
2022/04/11 07:55:11;;;;;;;4.60;2.05;;;13.70;98.30;;;;;;5068227;28;20074;-80
2022/04/11 07:57:37;;;;;;;5.93;1.90;;;9.80;97.20;;;;;;5060663;28;20032;-80
2022/04/11 08:00:06;;;;;;;4.78;2.40;;;10.10;96.60;;;;;;5042592;28;20029;-79
2022/04/11 08:02:32;;;;;;;4.95;2.50;;;10.50;94.90;;;;;;5049871;28;20033;-80
2022/04/11 08:05:02;;;;;;;3.70;2.03;;;10.40;95.10;;;;;;5057391;28;20024;-79
2022/04/11 08:07:30;;;;;;;6.72;2.20;;;10.50;92.70;;;;;;5067511;28;20148;-79
2022/04/11 08:09:56;;;;;;;4.55;2.92;;;;;;;;;;5076768;28;20183;-81
2022/04/11 08:12:22;;;;;;;5.85;2.45;;;;;;;;;;5076567;28;20453;-80
2022/04/11 08:14:48;;;;;;;3.95;2.30;;;;;;;;;;5093631;28;20024;-79
2022/04/11 08:17:14;;;;;;;3.25;2.03;;;;;;;;;;5081532;28;20035;-80
2022/04/11 08:19:40;;;;;;;5.68;2.35;;;10.50;92.00;;;;;;5076948;28;20041;-80
2022/04/11 08:22:06;;;;;;;5.00;2.30;;;10.70;92.40;;;;;;5064554;28;20044;-79
2022/04/11 08:24:32;;;;;;;3.83;2.08;;;10.90;91.40;;;;;;5076678;28;20036;-79
2022/04/11 08:26:58;;;;;;;3.63;1.88;;;12.20;91.10;;;;;;5069419;28;20121;-79
2022/04/11 08:29:28;;;;;;;5.55;2.33;;;11.30;90.30;;;;;;5067016;28;20040;-80
2022/04/11 08:31:53;;;;;;;4.85;2.20;;;11.50;89.90;;;;;;5069577;28;20052;-79
2022/04/11 08:34:19;;;;;;;5.10;2.20;;;;;;;;;;5075518;28;20046;-77
2022/04/11 08:36:45;;;;;;;6.10;2.30;;;11.50;87.60;;;;;;5053776;28;20070;-80
2022/04/11 08:39:11;;;;;;;5.47;2.53;;;11.50;88.60;;;;;;5069359;28;20032;-80
2022/04/11 08:41:38;;;;;;;4.25;2.25;;;11.40;86.40;;;;;;5085156;28;20048;-80
2022/04/11 08:44:05;;;;;;;5.05;2.50;;;11.30;86.10;;;;;;5088288;28;20021;-80
2022/04/11 08:46:35;;;;;;;8.07;2.58;;;11.70;85.80;;;;;;5062776;28;20059;-80
2022/04/11 08:49:03;;;;;;;8.07;2.15;;;11.70;86.20;;;;;;5092898;28;20032;-80
2022/04/11 08:51:34;;;;;;;5.68;2.33;;;11.80;85.30;;;;;;5096877;28;20020;-79
2022/04/11 08:54:01;;;;;;;5.70;2.30;;;11.90;85.20;;;;;;5088489;28;20036;-80
2022/04/11 08:56:28;;;;;;;3.95;2.03;;;12.10;84.30;;;;;;5083196;28;20037;-79
2022/04/11 08:58:53;;;;;;;3.53;2.00;;;12.10;84.10;;;;;;5058027;28;20120;-78
2022/04/11 09:01:20;;;;;;;4.22;2.10;;;;;;;;;;5068725;28;20048;-78
2022/04/11 09:03:47;;;;;;;3.58;2.00;;;;;;;;;;5082824;28;20029;-80
2022/04/11 09:06:17;;;;;;;4.30;2.03;;;;;;;;;;5083880;28;20040;-79
2022/04/11 09:08:53;;;;;;;4.25;1.90;;;12.70;78.60;;;;;;5084290;28;20045;-77
2022/04/11 09:11:34;;;;;;;4.05;1.80;;;12.70;78.80;;;;;;5060752;28;20040;-79
2022/04/11 09:14:04;;;;;;;3.50;1.92;;;12.70;77.80;;;;;;5068249;28;20051;-78
2022/04/11 09:16:53;;;;;;;6.68;2.10;;;12.70;77.00;;;;;;5086993;28;20024;-81
2022/04/11 09:19:28;;;;;;;4.00;2.00;;;12.70;76.90;;;;;;5067321;28;20039;-81
2022/04/11 09:21:54;;;;;;;5.20;1.80;;;;;;;;;;5081333;28;20033;-81
2022/04/11 09:24:22;;;;;;;5.38;1.83;;;13.00;76.20;;;;;;5086749;28;20036;-81
2022/04/11 09:26:55;;;;;;;4.93;1.92;;;13.10;76.10;;;;;;5086673;28;20042;-79
2022/04/11 09:29:23;;;;;;;3.08;1.90;;;;;;;;;;5101825;28;20036;-80
2022/04/11 09:31:49;;;;;;;4.30;1.85;;;;;;;;;;5308763;22;20120;-80
2022/04/11 09:34:15;;;;;;;2.67;1.50;;;;;;;;;;5088236;28;20536;-82
2022/04/11 09:36:45;;;;;;;4.97;2.05;;;13.10;75.70;;;;;;5066262;28;20986;-82
2022/04/11 09:39:11;;;;;;;3.20;1.58;;;;;;;;;;5080276;28;20267;-82
2022/04/11 09:41:46;;;;;;;3.35;1.83;;;13.60;74.30;;;;;;5064451;28;20039;-80
2022/04/11 09:44:21;;;;;;;3.67;1.70;;;13.60;74.30;;;;;;5074055;28;20039;-78
2022/04/11 09:46:48;;;;;;;2.70;1.60;;;;;;;;;;5079357;28;20107;-80
2022/04/11 09:49:14;;;;;;;5.53;1.90;;;13.80;72.70;;;;;;5071278;28;20024;-81
2022/04/11 09:52:03;;;;;;;2.60;1.65;;;14.00;71.10;;;;;;5084225;28;20098;-81
2022/04/11 09:54:29;;;;;;;4.32;1.80;;;;;;;;;;5081071;28;20025;-81
2022/04/11 09:56:58;;;;;;;4.40;1.90;;;13.90;71.20;;;;;;5082235;28;20028;-82
2022/04/11 09:59:25;;;;;;;6.20;1.92;;;13.90;70.90;;;;;;5083581;28;20025;-80
2022/04/11 10:01:53;;;;;;;3.00;1.60;;;13.90;70.80;;;;;;5054167;28;20401;-78
2022/04/11 10:04:19;;;;;;;6.03;2.28;;;;;;;;;;5067664;28;20028;-78
2022/04/11 10:06:45;;;;;;;3.40;1.30;;;;;;;;;;5050577;28;20028;-79
2022/04/11 10:09:13;;;;;;;4.15;1.58;;;14.30;69.40;;;;;;5068624;28;20099;-79
2022/04/11 10:11:44;;;;;;;4.68;1.67;;;14.30;69.40;;;;;;5048501;28;20024;-78
2022/04/11 10:14:17;;;;;;;2.88;1.48;;;14.60;66.30;;;;;;5065985;28;20021;-78
2022/04/11 10:16:44;;;;;;;3.78;1.48;;;14.50;66.00;;;;;;5070482;28;20033;-79
2022/04/11 10:19:11;;;;;;;2.78;1.35;;;14.40;65.30;;;;;;5068643;28;20020;-79
2022/04/11 10:21:41;;;;;;;2.97;1.30;;;14.50;64.40;;;;;;5073584;28;20025;-78
2022/04/11 10:24:13;;;;;;;3.83;1.30;;;14.60;64.20;;;;;;5064028;28;20078;-78
2022/04/11 10:26:44;;;;;;;5.45;1.40;;;13.40;64.10;;;;;;5048530;28;20036;-80
2022/04/11 10:29:33;;;;;;;3.90;1.55;;;14.70;62.10;;;;;;5071325;28;20024;-80
2022/04/11 10:32:06;;;;;;;4.65;1.50;;;15.10;63.10;;;;;;5053361;28;20047;-80
2022/04/11 10:34:46;;;;;;;4.35;1.52;;;15.00;63.30;;;;;;5073702;28;20039;-79
2022/04/11 10:37:12;;;;;;;2.95;1.30;;;;;;;;;;5078276;28;20028;-80
2022/04/11 10:39:39;;;;;;;2.92;1.50;;;;;;;;;;5069097;28;20051;-79
2022/04/11 10:42:25;;;;;;;2.28;1.25;;;15.50;61.00;;;;;;5046081;28;20040;-77
2022/04/11 10:44:56;;;;;;;2.38;1.17;;;15.40;59.80;;;;;;5049579;28;20025;-80
2022/04/11 10:47:33;;;;;;;3.50;1.75;;;15.40;61.00;;;;;;5071711;28;20115;-79
2022/04/11 10:50:01;;;;;;;1.85;1.10;;;15.60;60.10;;;;;;5071145;28;20032;-80
2022/04/11 10:52:41;;;;;;;5.00;1.40;;;15.60;59.40;;;;;;5083866;28;20011;-81
2022/04/11 10:55:22;;;;;;;2.55;1.38;;;15.80;59.40;;;;;;5074646;28;20016;-80
2022/04/11 10:57:54;;;;;;;2.83;1.40;;;15.80;58.80;;;;;;5060550;28;20024;-81
2022/04/11 11:00:20;;;;;;;4.95;1.38;;;;;;;;;;5057932;28;20251;-81
2022/04/11 11:02:56;;;;;;;2.70;1.30;;;15.90;59.40;;;;;;5076684;28;20024;-80
2022/04/11 11:05:38;;;;;;;2.38;1.23;;;16.10;59.60;;;;;;5075555;28;20073;-80
2022/04/11 11:08:11;;;;;;;2.83;1.27;;;16.00;58.00;;;;;;5070684;28;20020;-79
2022/04/11 11:10:41;;;;;;;4.22;1.30;;;16.20;58.50;;;;;;5046171;28;20033;-79
2022/04/11 11:13:34;;;;;;;1.80;1.25;;;15.70;58.60;;;;;;5068960;28;20085;-80
2022/04/11 11:16:11;;;;;;;3.13;1.38;;;15.70;59.60;;;;;;5068370;28;20017;-79
2022/04/11 11:19:03;;;;;;;2.47;1.30;;;16.00;58.80;;;;;;5067452;28;20029;-79
2022/04/11 11:21:28;;;;;;;2.45;1.17;;;15.90;58.40;;;;;;5064179;28;20063;-78
2022/04/11 11:26:45;;;;;;;3.67;1.27;;;16.00;57.50;;;;;;5066387;28;20108;-77
2022/04/11 11:29:32;;;;;;;3.25;1.42;;;16.00;58.00;;;;;;5059889;28;20029;-78
2022/04/11 11:32:08;;;;;;;1.80;1.10;;;16.10;56.70;;;;;;5067578;28;20095;-79
2022/04/11 11:34:38;;;;;;;3.30;1.08;;;16.00;56.30;;;;;;5044533;28;20086;-77
2022/04/11 11:37:15;;;;;;;2.65;1.05;;;16.40;55.30;;;;;;5052590;28;20020;-79
2022/04/11 11:39:43;;;;;;;2.65;1.20;;;16.40;55.80;;;;;;5041779;28;20047;-79
2022/04/11 11:42:18;;;;;;;3.50;1.45;;;16.70;53.40;;;;;;5064677;28;20028;-80
2022/04/11 11:44:50;;;;;;;2.65;1.08;;;16.70;53.90;;;;;;5065606;28;20024;-79
2022/04/11 11:47:25;;;;;;;1.95;1.00;;;17.10;53.00;;;;;;5067690;28;20032;-80
2022/04/11 11:49:51;;;;;;;1.85;1.00;;;16.80;51.40;;;;;;5069987;28;20033;-77
2022/04/11 11:52:20;;;;;;;2.45;0.98;;;16.80;49.90;;;;;;5066291;28;20155;-80
2022/04/11 11:54:50;;;;;;;2.80;1.13;;;16.80;49.90;;;;;;5064939;28;20059;-79
2022/04/11 11:57:26;;;;;;;2.25;0.88;;;16.80;49.10;;;;;;5076523;28;20031;-80
2022/04/11 12:00:02;;;;;;;3.63;1.67;;;16.80;49.40;;;;;;5073324;28;20029;-78
2022/04/11 12:05:15;;;;;;;3.10;1.00;;;17.10;48.60;;;;;;5068364;28;20043;-79
2022/04/11 12:07:41;;;;;;;2.88;0.82;;;;;;;;;;5065686;28;20319;-79
2022/04/11 12:10:09;;;;;;;2.65;1.00;;;17.20;47.60;;;;;;5070139;28;20028;-79
2022/04/11 12:12:35;;;;;;;2.42;1.13;;;;;;;;;;5067851;28;20028;-78
2022/04/11 12:15:04;;;;;;;2.50;0.90;;;17.40;47.80;;;;;;5052570;28;20409;-80
2022/04/11 12:17:35;;;;;;;2.17;0.90;;;17.50;47.40;;;;;;5071241;28;20078;-80
2022/04/11 12:20:07;;;;;;;;;;;17.50;47.90;;;;;;5071425;28;20034;-81
2022/04/11 12:22:32;;;;;;;1.05;0.80;;;17.60;47.30;;;;;;5065627;28;19963;-81
2022/04/11 12:24:58;;;;;;;2.78;1.15;;;17.60;47.00;;;;;;5068541;28;20041;-81
2022/04/11 12:27:24;;;;;;;2.17;1.00;;;17.70;46.40;;;;;;5070440;28;20025;-81
2022/04/11 12:29:49;;;;;;;1.52;0.85;;;17.70;46.90;;;;;;5067538;28;20035;-80
2022/04/11 12:32:16;;;;;;;3.30;1.27;;;;;;;;;;5061287;28;20032;-80
2022/04/11 12:34:44;;;;;;;2.08;0.85;;;17.80;46.40;;;;;;5069797;28;20279;-79
2022/04/11 12:37:14;;;;;;;1.25;0.90;;;17.80;46.40;;;;;;5065108;28;20119;-80
2022/04/11 12:39:52;;;;;;;4.32;1.30;;;17.70;46.30;;;;;;5066328;28;20033;-81
2022/04/11 12:42:22;;;;;;;3.05;1.20;;;17.90;46.40;;;;;;5069916;28;20043;-80
2022/04/11 12:44:49;;;;;;;1.75;0.90;;;18.70;47.30;;;;;;5048959;28;20147;-78
2022/04/11 12:47:15;;;;;;;1.95;0.90;;;;;;;;;;5087676;23;20040;-83
2022/04/11 12:49:57;;;;;;;2.20;0.98;;;18.00;44.90;;;;;;5053063;28;20029;-82
2022/04/11 12:52:25;;;;;;;1.65;1.10;;;18.00;46.50;;;;;;5054352;28;20032;-85
2022/04/11 12:55:00;;;;;;;4.80;1.10;;;18.10;46.50;;;;;;5051601;28;20136;-84
2022/04/11 12:57:32;;;;;;;2.08;1.15;;;18.00;45.40;;;;;;5041299;28;20122;-85
2022/04/11 13:00:18;;;;;;;1.95;0.90;;;18.00;45.50;;;;;;5022457;28;20025;-85
2022/04/11 13:02:44;;;;;;;2.85;1.10;;;;;;;;;;5044612;28;20044;-83
2022/04/11 13:05:15;;;;;;;1.45;0.80;;;18.00;43.90;;;;;;5048633;28;20053;-82
2022/04/11 13:07:41;;;;;;;1.20;0.80;;;;;;;;;;5041058;28;20037;-85
2022/04/11 13:10:08;;;;;;;1.33;0.75;;;17.90;44.10;;;;;;5044252;28;20084;-85
2022/04/11 13:12:34;;;;;;;0.90;0.70;;;18.10;43.30;;;;;;5021609;28;20047;-88
2022/04/11 13:14:59;;;;;;;1.00;0.60;;;18.10;43.80;;;;;;5043027;28;20443;-84
2022/04/11 13:20:10;;;;;;;1.83;0.90;;;18.10;44.60;;;;;;5042457;28;20595;-83
2022/04/11 13:22:36;;;;;;;2.03;1.00;;;18.20;44.40;;;;;;5053437;28;20411;-84
2022/04/11 13:25:03;;;;;;;2.42;1.00;;;18.30;43.70;;;;;;5041552;28;20034;-84
2022/04/11 13:27:29;;;;;;;1.40;0.70;;;;;;;;;;5024277;28;20032;-83